Time;durP1;ratioP1;P1;durP2;ratioP2;P2;SDS_P1;SDS_P2;PMS_P1;PMS_P2;Temp;Humidity;BMP_temperature;BMP_pressure;BME280_temperature;BME280_humidity;BME280_pressure;Samples;Min_cycle;Max_cycle;Signal;HPM_P1;HPM_P2
2023/01/11 00:01:08;;;;;;;3.83;1.40;;;;;;;8.48;97.93;96688.75;5024411;28;20076;-55
2023/01/11 00:03:36;;;;;;;5.78;1.73;;;;;;;8.76;96.42;96674.16;5026635;28;20061;-54
2023/01/11 00:06:06;;;;;;;3.47;1.50;;;;;;;8.37;94.86;96686.13;5023555;28;20096;-52
2023/01/11 00:08:35;;;;;;;2.42;1.60;;;;;;;8.52;99.04;96682.28;5023951;28;20079;-53
2023/01/11 00:11:05;;;;;;;4.38;1.63;;;;;;;8.44;97.58;96680.28;5026778;28;20084;-53
2023/01/11 00:13:33;;;;;;;6.00;1.63;;;;;;;8.53;94.34;96669.03;5027504;28;20087;-53
2023/01/11 00:16:07;;;;;;;2.70;1.30;;;;;;;8.20;97.98;96684.88;5028458;28;20057;-50
2023/01/11 00:18:36;;;;;;;3.60;1.45;;;;;;;8.65;91.16;96677.69;5030410;28;20084;-50
2023/01/11 00:21:05;;;;;;;6.35;1.50;;;;;;;8.88;88.85;96677.53;5029557;28;20605;-55
2023/01/11 00:23:34;;;;;;;1.30;1.20;;;;;;;8.24;89.97;96679.25;5023655;28;20525;-51
2023/01/11 00:26:03;;;;;;;4.00;1.45;;;;;;;8.79;90.15;96671.28;5034254;28;20085;-52
2023/01/11 00:28:34;;;;;;;2.78;1.35;;;;;;;8.74;89.99;96663.78;5018338;28;20087;-52
2023/01/11 00:31:03;;;;;;;2.25;1.30;;;;;;;8.91;86.85;96651.84;5024328;28;20073;-53
2023/01/11 00:33:33;;;;;;;4.28;1.45;;;;;;;8.94;87.92;96648.09;5025789;28;20077;-56
2023/01/11 00:36:01;;;;;;;1.67;1.13;;;;;;;8.93;82.83;96646.44;5030245;28;20076;-50
2023/01/11 00:38:50;;;;;;;5.28;1.60;;;;;;;8.24;100.00;96637.22;5033274;28;20433;-51
2023/01/11 00:49:39;;;;;;;3.33;1.52;;;;;;;9.43;79.77;96646.56;5028047;28;20069;-55
2023/01/11 00:52:08;;;;;;;3.95;1.33;;;;;;;9.40;77.11;96633.66;5027166;28;20070;-57
2023/01/11 00:54:38;;;;;;;2.78;1.42;;;;;;;9.48;76.61;96629.38;5031221;28;20064;-52
2023/01/11 00:57:07;;;;;;;2.63;1.40;;;;;;;9.77;75.82;96623.34;5026869;28;20451;-52
2023/01/11 00:59:36;;;;;;;1.95;1.08;;;;;;;9.67;75.65;96631.25;5031452;28;20680;-50
2023/01/11 01:02:04;;;;;;;2.42;1.20;;;;;;;9.39;77.28;96631.97;5024505;28;20085;-51
2023/01/11 01:04:33;;;;;;;3.28;1.20;;;;;;;9.32;78.37;96628.19;5030188;28;20076;-53
2023/01/11 01:07:03;;;;;;;2.08;0.90;;;;;;;9.74;76.26;96624.47;5030141;28;20488;-50
2023/01/11 01:09:32;;;;;;;1.50;1.10;;;;;;;9.60;74.82;96637.16;5036334;28;20065;-52
2023/01/11 01:12:01;;;;;;;3.13;1.20;;;;;;;9.45;79.26;96639.34;5034813;28;20056;-53
2023/01/11 01:14:30;;;;;;;2.53;1.10;;;;;;;9.24;82.60;96636.75;5032584;28;20080;-51
2023/01/11 01:17:00;;;;;;;2.83;1.13;;;;;;;9.73;80.07;96627.22;5033052;28;20068;-54
2023/01/11 01:19:30;;;;;;;2.47;1.05;;;;;;;9.32;82.56;96644.81;5030145;28;20075;-52
2023/01/11 01:21:59;;;;;;;4.15;1.13;;;;;;;9.63;80.30;96636.91;5030622;28;20092;-54
2023/01/11 01:24:29;;;;;;;2.47;1.00;;;;;;;9.32;86.23;96639.56;5027063;28;20604;-49
2023/01/11 01:26:58;;;;;;;3.33;1.17;;;;;;;9.65;79.80;96629.72;5028821;28;20068;-49
2023/01/11 01:29:27;;;;;;;1.55;0.90;;;;;;;9.06;79.72;96636.56;5026398;28;20450;-53
2023/01/11 01:31:55;;;;;;;2.45;1.13;;;;;;;9.63;78.36;96631.63;5031555;28;20084;-53
2023/01/11 01:34:24;;;;;;;1.33;0.80;;;;;;;9.49;75.09;96630.19;5029854;28;20441;-48
2023/01/11 01:36:52;;;;;;;2.47;1.10;;;;;;;9.22;80.97;96639.53;5035389;28;20124;-48
2023/01/11 01:39:21;;;;;;;3.95;0.90;;;;;;;8.93;77.32;96639.38;5033846;28;20441;-52
2023/01/11 01:41:51;;;;;;;1.85;0.90;;;;;;;9.63;76.27;96629.81;5030113;28;20573;-50
2023/01/11 01:45:06;;;;;;;1.35;0.95;;;;;;;9.59;77.71;96631.06;5028021;28;20065;-49
2023/01/11 01:47:42;;;;;;;2.20;1.00;;;;;;;9.14;85.97;96631.44;4983278;28;20080;-48
2023/01/11 01:50:16;;;;;;;0.80;0.70;;;;;;;9.44;84.53;96629.78;5031802;28;20077;-52
2023/01/11 01:52:46;;;;;;;4.22;1.30;;;;;;;9.00;89.67;96634.44;5034027;28;20068;-49
2023/01/11 01:55:19;;;;;;;1.67;1.02;;;;;;;9.34;85.75;96628.91;5028655;28;20073;-53
2023/01/11 01:57:50;;;;;;;1.73;0.90;;;;;;;9.00;89.52;96637.06;5028059;28;20083;-54
2023/01/11 02:00:19;;;;;;;1.30;0.88;;;;;;;9.27;87.98;96641.75;5031585;28;20084;-53
2023/01/11 02:02:48;;;;;;;2.50;0.90;;;;;;;8.97;96.82;96629.44;5031046;28;20065;-54
2023/01/11 02:05:17;;;;;;;3.22;0.90;;;;;;;8.83;100.00;96635.84;5030457;28;20080;-52
2023/01/11 02:07:46;;;;;;;1.42;0.98;;;;;;;9.09;99.19;96631.03;5030523;28;20076;-48
2023/01/11 02:10:16;;;;;;;2.22;0.93;;;;;;;9.30;96.02;96622.25;5028430;28;20088;-50
2023/01/11 02:12:49;;;;;;;1.67;0.80;;;;;;;9.31;98.91;96613.38;5030376;28;20092;-52
2023/01/11 02:15:19;;;;;;;1.88;0.82;;;;;;;9.59;92.80;96606.53;5029171;28;20100;-53
2023/01/11 02:17:47;;;;;;;1.60;0.75;;;;;;;9.26;98.42;96619.88;5032833;28;20064;-50
2023/01/11 02:20:45;;;;;;;2.80;1.10;;;;;;;8.92;100.00;96614.06;5032436;28;20092;-55
2023/01/11 02:24:05;;;;;;;1.80;0.90;;;;;;;8.71;100.00;96618.50;4982893;28;20139;-51
2023/01/11 02:26:57;;;;;;;1.80;1.00;;;;;;;9.03;100.00;96615.75;5024433;28;20080;-53
2023/01/11 02:29:33;;;;;;;1.48;0.70;;;;;;;9.04;100.00;96605.09;5031072;28;20072;-54
2023/01/11 02:32:10;;;;;;;5.18;0.98;;;;;;;8.73;100.00;96604.25;5032388;28;20135;-49
2023/01/11 02:34:42;;;;;;;2.45;0.90;;;;;;;8.91;100.00;96599.25;5026798;28;20077;-51
2023/01/11 02:37:19;;;;;;;1.20;0.73;;;;;;;8.68;100.00;96595.09;5027774;28;20084;-54
2023/01/11 02:39:54;;;;;;;2.00;0.70;;;;;;;8.52;100.00;96588.47;5032770;28;20089;-52
2023/01/11 02:45:20;;;;;;;1.63;0.88;;;;;;;8.85;100.00;96577.91;5027601;28;20080;-52
2023/01/11 02:47:50;;;;;;;2.47;0.90;;;;;;;8.53;100.00;96573.53;5028392;28;20155;-51
2023/01/11 02:50:22;;;;;;;1.17;0.80;;;;;;;8.77;100.00;96565.38;5029061;28;20482;-52
2023/01/11 02:52:54;;;;;;;1.13;0.82;;;;;;;9.02;100.00;96566.75;5030197;28;20099;-51
2023/01/11 02:55:25;;;;;;;2.00;0.82;;;;;;;8.87;100.00;96554.91;5031194;28;20072;-52
2023/01/11 02:57:56;;;;;;;0.93;0.73;;;;;;;8.40;100.00;96560.63;5027453;28;20084;-54
2023/01/11 03:00:26;;;;;;;0.98;0.80;;;;;;;9.07;100.00;96555.81;5028117;28;20236;-56
2023/01/11 03:03:06;;;;;;;0.88;0.80;;;;;;;9.09;100.00;96551.28;5026516;28;20125;-50
2023/01/11 03:05:38;;;;;;;2.30;0.93;;;;;;;9.39;100.00;96553.00;5024814;28;20579;-53
2023/01/11 03:08:15;;;;;;;1.63;0.70;;;;;;;8.85;100.00;96556.84;5033553;28;20049;-48
2023/01/11 03:10:52;;;;;;;1.55;0.80;;;;;;;9.31;100.00;96543.16;5024318;28;20084;-55
2023/01/11 03:13:27;;;;;;;1.38;0.70;;;;;;;9.03;100.00;96550.81;5026140;28;20088;-51
2023/01/11 03:16:09;;;;;;;1.17;0.75;;;;;;;8.93;100.00;96541.25;5028244;28;20077;-51
2023/01/11 03:18:46;;;;;;;2.40;0.80;;;;;;;9.33;100.00;96535.16;5031157;28;20083;-50
2023/01/11 03:21:25;;;;;;;1.88;0.70;;;;;;;9.33;100.00;96529.88;5030075;28;20230;-51
2023/01/11 03:23:59;;;;;;;2.08;0.70;;;;;;;9.44;100.00;96524.50;5031114;28;20063;-53
2023/01/11 03:26:33;;;;;;;1.00;0.55;;;;;;;9.42;100.00;96515.88;5026803;28;20089;-55
2023/01/11 03:29:10;;;;;;;0.60;0.60;;;;;;;9.37;100.00;96502.31;5027747;28;20136;-55
2023/01/11 03:31:45;;;;;;;0.68;0.63;;;;;;;9.59;100.00;96494.16;5026013;28;20072;-53
2023/01/11 03:34:16;;;;;;;0.70;0.57;;;;;;;9.63;100.00;96503.44;5032176;28;20635;-54
2023/01/11 03:36:52;;;;;;;0.70;0.68;;;;;;;9.66;100.00;96499.72;5028251;28;20079;-54
2023/01/11 03:39:24;;;;;;;2.80;0.73;;;;;;;9.14;100.00;96510.44;5025295;28;20081;-54
2023/01/11 03:41:56;;;;;;;1.00;0.70;;;;;;;9.43;100.00;96502.63;5025874;28;20129;-54
2023/01/11 03:44:25;;;;;;;0.90;0.70;;;;;;;9.64;100.00;96491.13;5030280;28;20169;-52
2023/01/11 03:46:59;;;;;;;2.33;0.73;;;;;;;9.84;100.00;96495.44;5032454;28;20497;-54
2023/01/11 03:49:31;;;;;;;0.60;0.60;;;;;;;9.90;100.00;96497.50;5026613;28;20089;-55
2023/01/11 03:52:02;;;;;;;0.60;0.60;;;;;;;9.47;100.00;96492.66;5023879;28;20072;-55
2023/01/11 03:54:32;;;;;;;1.35;0.73;;;;;;;8.94;100.00;96498.19;5026387;28;20069;-52
2023/01/11 03:57:03;;;;;;;0.83;0.63;;;;;;;9.55;100.00;96487.50;5030849;28;20081;-50
2023/01/11 03:59:32;;;;;;;0.70;0.65;;;;;;;9.47;100.00;96484.75;5029343;28;20077;-54
2023/01/11 04:02:02;;;;;;;1.35;0.70;;;;;;;9.11;100.00;96484.38;5021943;28;20081;-53
2023/01/11 04:04:30;;;;;;;0.80;0.50;;;;;;;9.58;100.00;96471.44;5028783;28;20072;-52
2023/01/11 04:06:59;;;;;;;0.95;0.82;;;;;;;9.87;100.00;96466.16;5023807;28;20540;-52
2023/01/11 04:09:27;;;;;;;2.25;0.68;;;;;;;9.87;100.00;96470.59;5026723;28;20076;-51
2023/01/11 04:11:55;;;;;;;0.95;0.70;;;;;;;9.70;100.00;96469.50;5028824;28;20092;-51
2023/01/11 04:14:24;;;;;;;5.35;0.82;;;;;;;9.92;100.00;96468.38;5027345;28;20083;-51
2023/01/11 04:16:52;;;;;;;0.88;0.50;;;;;;;10.23;100.00;96472.50;5032078;28;20084;-53
2023/01/11 04:19:22;;;;;;;1.85;0.70;;;;;;;10.23;100.00;96466.41;5030228;28;20075;-57
2023/01/11 04:21:50;;;;;;;3.90;0.80;;;;;;;9.88;100.00;96462.56;5028930;28;20073;-55
2023/01/11 04:24:20;;;;;;;2.00;0.60;;;;;;;10.13;100.00;96468.22;5031280;28;20084;-54
2023/01/11 04:26:48;;;;;;;0.50;0.50;;;;;;;10.18;100.00;96466.81;5030140;28;20116;-53
2023/01/11 04:29:17;;;;;;;2.35;0.80;;;;;;;10.20;100.00;96464.03;5032091;28;20072;-55
2023/01/11 04:31:45;;;;;;;1.02;0.70;;;;;;;9.97;100.00;96458.25;5024364;28;20183;-54
2023/01/11 04:34:13;;;;;;;0.50;0.50;;;;;;;9.75;100.00;96462.03;5027737;28;20081;-52
2023/01/11 04:36:43;;;;;;;1.45;0.65;;;;;;;9.25;100.00;96468.22;5029761;28;20088;-52
2023/01/11 04:39:12;;;;;;;0.80;0.60;;;;;;;10.28;100.00;96463.34;5026743;28;20069;-54
2023/01/11 04:44:26;;;;;;;1.10;0.73;;;;;;;10.25;100.00;96459.16;5027361;28;20073;-54
2023/01/11 04:46:54;;;;;;;1.38;0.70;;;;;;;9.87;100.00;96460.88;5024441;28;20505;-52
2023/01/11 04:49:23;;;;;;;1.90;0.82;;;;;;;10.16;100.00;96460.03;5027857;28;20073;-49
2023/01/11 04:51:53;;;;;;;2.35;0.57;;;;;;;10.38;100.00;96453.63;5031120;28;20073;-55
2023/01/11 04:54:21;;;;;;;2.47;0.60;;;;;;;9.85;100.00;96452.31;5022409;28;20066;-52
2023/01/11 04:56:49;;;;;;;1.10;0.60;;;;;;;10.40;100.00;96444.59;5026035;28;20559;-53
2023/01/11 04:59:18;;;;;;;0.90;0.60;;;;;;;10.23;100.00;96448.78;5024070;28;20716;-51
2023/01/11 05:01:46;;;;;;;2.10;0.80;;;;;;;10.31;100.00;96445.44;5032189;28;20077;-56
2023/01/11 05:04:14;;;;;;;0.60;0.50;;;;;;;10.49;100.00;96440.25;5035282;28;20068;-55
2023/01/11 05:06:43;;;;;;;1.42;0.60;;;;;;;10.76;100.00;96442.09;5032157;28;20080;-51
2023/01/11 05:09:14;;;;;;;0.90;0.55;;;;;;;10.54;100.00;96445.94;5031001;28;20509;-52
2023/01/11 05:11:43;;;;;;;0.70;0.60;;;;;;;10.10;100.00;96445.63;5033438;28;20092;-53
2023/01/11 05:14:11;;;;;;;0.52;0.52;;;;;;;10.18;100.00;96445.72;5023593;28;20081;-52
2023/01/11 05:16:40;;;;;;;1.58;0.60;;;;;;;10.40;100.00;96446.41;5031102;28;20076;-54
2023/01/11 05:19:09;;;;;;;1.00;0.60;;;;;;;10.20;100.00;96445.59;5027021;28;20115;-56
2023/01/11 05:21:39;;;;;;;1.13;0.70;;;;;;;10.39;100.00;96450.00;5031270;28;20408;-50
2023/01/11 05:24:10;;;;;;;0.90;0.60;;;;;;;10.52;100.00;96441.78;5035302;28;20084;-50
2023/01/11 05:26:42;;;;;;;0.73;0.50;;;;;;;10.63;100.00;96449.50;5027905;28;20108;-51
2023/01/11 05:29:12;;;;;;;1.73;0.60;;;;;;;10.61;100.00;96448.84;5029656;28;20081;-50
2023/01/11 05:31:40;;;;;;;1.08;0.70;;;;;;;10.73;100.00;96442.38;5030954;28;20076;-56
2023/01/11 05:34:10;;;;;;;0.88;0.70;;;;;;;10.99;100.00;96444.34;5030154;28;20537;-52
2023/01/11 05:36:39;;;;;;;0.55;0.50;;;;;;;10.68;100.00;96442.00;5032858;28;20077;-52
2023/01/11 05:39:07;;;;;;;1.02;0.57;;;;;;;10.89;100.00;96436.47;5035822;28;20076;-52
2023/01/11 05:41:36;;;;;;;0.52;0.52;;;;;;;11.14;100.00;96446.31;5033468;28;20466;-49
2023/01/11 05:46:54;;;;;;;0.52;0.50;;;;;;;11.35;100.00;96439.94;5027151;28;20057;-50
2023/01/11 05:49:23;;;;;;;1.63;0.80;;;;;;;11.40;100.00;96435.06;5025270;28;20092;-49
2023/01/11 05:51:51;;;;;;;2.97;1.05;;;;;;;11.48;100.00;96424.56;5029995;28;20081;-53
2023/01/11 05:54:20;;;;;;;1.42;0.65;;;;;;;11.31;100.00;96428.84;5028176;28;20083;-50
2023/01/11 05:56:48;;;;;;;0.57;0.57;;;;;;;11.33;100.00;96424.25;5035132;28;20075;-52
2023/01/11 05:59:18;;;;;;;1.05;0.70;;;;;;;11.29;100.00;96430.00;5028685;28;20061;-52
2023/01/11 06:01:46;;;;;;;2.03;1.10;;;;;;;11.19;100.00;96429.22;5030780;28;20099;-52
2023/01/11 06:04:15;;;;;;;2.47;1.00;;;;;;;11.44;100.00;96425.00;5026958;28;20073;-53
2023/01/11 06:06:43;;;;;;;1.08;0.90;;;;;;;11.50;100.00;96427.88;5032198;28;20080;-52
2023/01/11 06:09:12;;;;;;;2.83;0.90;;;;;;;11.40;100.00;96430.59;5032427;28;20080;-49
2023/01/11 06:11:40;;;;;;;1.85;1.13;;;;;;;11.22;100.00;96423.63;5028218;28;20410;-51
2023/01/11 06:14:08;;;;;;;1.90;1.10;;;;;;;11.50;100.00;96429.69;5032525;28;20069;-52
2023/01/11 06:16:38;;;;;;;1.58;1.20;;;;;;;11.38;100.00;96427.25;5027329;28;20065;-52
2023/01/11 06:19:06;;;;;;;1.37;1.07;;;;;;;10.82;100.00;96430.13;5025604;28;20065;-52
2023/01/11 06:21:35;;;;;;;2.58;1.60;;;;;;;10.60;100.00;96429.53;5027254;28;20511;-55
2023/01/11 06:24:03;;;;;;;1.77;1.50;;;;;;;10.42;100.00;96424.19;5032553;28;20081;-53
2023/01/11 06:26:32;;;;;;;2.25;1.10;;;;;;;10.36;100.00;96424.78;5032252;28;20088;-54
2023/01/11 06:29:00;;;;;;;1.67;0.80;;;;;;;10.55;100.00;96425.66;5026971;28;20076;-53
2023/01/11 06:31:28;;;;;;;2.40;1.00;;;;;;;10.23;100.00;96430.31;5027451;28;20072;-54
2023/01/11 06:33:58;;;;;;;2.40;0.80;;;;;;;10.67;100.00;96429.78;5029565;28;20084;-51
2023/01/11 06:36:26;;;;;;;2.13;0.70;;;;;;;10.78;100.00;96432.22;5030329;28;20084;-52
2023/01/11 06:38:57;;;;;;;0.73;0.70;;;;;;;10.71;100.00;96428.53;5029007;28;20069;-53
2023/01/11 06:41:25;;;;;;;1.98;0.90;;;;;;;10.41;100.00;96429.63;5033139;28;20076;-54
2023/01/11 06:43:53;;;;;;;1.27;0.60;;;;;;;10.33;100.00;96434.78;5027030;28;20081;-51
2023/01/11 06:46:22;;;;;;;1.92;0.80;;;;;;;9.34;100.00;96427.09;5025526;28;20096;-54
2023/01/11 06:48:50;;;;;;;1.65;0.90;;;;;;;9.20;100.00;96425.72;5027137;28;20104;-54
2023/01/11 06:51:20;;;;;;;2.65;1.05;;;;;;;8.38;100.00;96427.69;5028984;28;20068;-51
2023/01/11 06:53:48;;;;;;;3.55;1.10;;;;;;;8.39;100.00;96426.72;5030379;28;20077;-56
2023/01/11 06:56:18;;;;;;;1.70;0.82;;;;;;;8.63;100.00;96424.59;5030300;28;20076;-55
2023/01/11 06:58:47;;;;;;;1.83;1.00;;;;;;;8.62;100.00;96415.06;5029694;28;20439;-53
2023/01/11 07:01:16;;;;;;;2.33;0.90;;;;;;;9.04;100.00;96420.13;5027697;28;20175;-54
2023/01/11 07:03:45;;;;;;;3.10;0.70;;;;;;;9.35;100.00;96427.94;5025032;28;20081;-58
2023/01/11 07:06:14;;;;;;;1.88;1.20;;;;;;;9.66;100.00;96420.72;5021777;28;20073;-52
2023/01/11 07:08:44;;;;;;;2.58;1.23;;;;;;;9.89;100.00;96423.88;5044652;28;20092;-53
2023/01/11 07:11:12;;;;;;;2.00;1.40;;;;;;;9.93;100.00;96430.53;5031720;28;20547;-56
2023/01/11 07:13:41;;;;;;;2.00;1.58;;;;;;;9.76;100.00;96432.06;5032479;28;20092;-55
2023/01/11 07:16:09;;;;;;;2.17;1.98;;;;;;;9.94;100.00;96427.78;5037117;28;20069;-51
2023/01/11 07:18:37;;;;;;;3.90;2.00;;;;;;;10.13;100.00;96432.16;5026881;28;20080;-53
2023/01/11 07:21:06;;;;;;;3.13;1.80;;;;;;;10.32;100.00;96423.38;5024280;28;20128;-49
2023/01/11 07:23:34;;;;;;;2.47;2.20;;;;;;;10.44;100.00;96424.88;5026878;28;20089;-48
2023/01/11 07:26:04;;;;;;;3.45;2.20;;;;;;;10.55;100.00;96420.41;5021908;28;20088;-54
2023/01/11 07:28:32;;;;;;;3.97;2.60;;;;;;;10.56;100.00;96416.78;5030448;28;20486;-51
2023/01/11 07:31:00;;;;;;;3.75;2.72;;;;;;;10.56;100.00;96422.06;5025377;28;20533;-55
2023/01/11 07:33:29;;;;;;;3.28;2.03;;;;;;;10.43;100.00;96422.41;5024808;28;20092;-54
2023/01/11 07:35:59;;;;;;;3.25;2.33;;;;;;;10.59;100.00;96416.50;5031528;28;20073;-50
2023/01/11 07:38:28;;;;;;;2.40;1.63;;;;;;;10.69;100.00;96412.81;5029049;28;20136;-54
2023/01/11 07:40:56;;;;;;;4.03;1.77;;;;;;;10.76;100.00;96415.72;5031019;28;20073;-54
2023/01/11 07:43:25;;;;;;;2.75;1.90;;;;;;;10.71;100.00;96417.97;5027736;28;20077;-54
2023/01/11 07:45:54;;;;;;;5.55;2.70;;;;;;;10.96;100.00;96415.63;5023509;28;20480;-50
2023/01/11 07:48:25;;;;;;;3.97;2.90;;;;;;;11.04;100.00;96408.59;5027291;28;20081;-52
2023/01/11 07:50:54;;;;;;;3.67;1.70;;;;;;;10.89;100.00;96410.09;5027928;28;20088;-53
2023/01/11 07:53:25;;;;;;;2.38;1.77;;;;;;;10.82;100.00;96396.66;5027122;28;20092;-56
2023/01/11 07:55:54;;;;;;;;;;;;;;;10.69;100.00;96399.63;5028667;28;20092;-55
2023/01/11 07:58:23;;;;;;;3.55;1.83;;;;;;;11.03;100.00;96393.75;5024843;28;19948;-50
2023/01/11 08:00:52;;;;;;;5.15;2.17;;;;;;;11.14;100.00;96393.53;5027259;28;20080;-55
2023/01/11 08:03:21;;;;;;;2.60;2.03;;;;;;;11.27;100.00;96397.63;5021403;28;20092;-56
2023/01/11 08:05:51;;;;;;;4.82;2.30;;;;;;;11.37;100.00;96387.81;5025816;28;20081;-52
2023/01/11 08:08:19;;;;;;;6.63;2.20;;;;;;;10.83;100.00;96389.56;5026011;28;20084;-51
2023/01/11 08:14:37;;;;;;;3.17;1.48;;;;;;;11.16;100.00;96388.94;5025037;28;20084;-53
2023/01/11 08:16:26;;;;;;;2.15;1.30;;;;;;;11.50;100.00;96383.00;5020847;28;20533;-54
2023/01/11 08:18:54;;;;;;;2.35;1.63;;;;;;;11.77;100.00;96378.59;5027596;28;20088;-54
2023/01/11 08:21:22;;;;;;;2.45;1.33;;;;;;;11.71;100.00;96368.63;5025765;28;20088;-53
2023/01/11 08:23:53;;;;;;;2.75;1.52;;;;;;;11.67;100.00;96372.56;5032021;28;20092;-55
2023/01/11 08:26:22;;;;;;;3.63;1.20;;;;;;;11.17;100.00;96372.13;5032544;28;20470;-50
2023/01/11 08:28:50;;;;;;;1.98;1.33;;;;;;;11.72;100.00;96365.81;5035770;28;20084;-51
2023/01/11 08:31:19;;;;;;;2.47;1.25;;;;;;;11.27;100.00;96366.78;5024217;28;20082;-51
2023/01/11 08:33:49;;;;;;;2.50;1.20;;;;;;;11.14;100.00;96369.78;5032665;28;20076;-56
2023/01/11 08:36:18;;;;;;;1.63;1.10;;;;;;;11.38;100.00;96363.06;5035096;28;20114;-52
2023/01/11 08:38:46;;;;;;;2.33;1.50;;;;;;;11.72;100.00;96360.53;5032524;28;20093;-54
2023/01/11 08:41:14;;;;;;;3.08;1.40;;;;;;;11.97;100.00;96358.09;5031889;28;20076;-50
2023/01/11 08:43:43;;;;;;;2.55;1.63;;;;;;;11.14;100.00;96367.16;5024948;28;20076;-51
2023/01/11 08:46:11;;;;;;;3.17;1.58;;;;;;;11.55;100.00;96364.88;5034136;28;20084;-53
2023/01/11 08:48:39;;;;;;;3.45;1.90;;;;;;;11.60;100.00;96359.16;5029484;28;20116;-51
2023/01/11 08:51:09;;;;;;;3.95;2.15;;;;;;;11.98;100.00;96355.31;5034304;28;20103;-53
2023/01/11 08:53:38;;;;;;;3.47;2.00;;;;;;;12.06;100.00;96355.34;5021968;28;20073;-51
2023/01/11 08:56:06;;;;;;;4.03;2.25;;;;;;;12.05;100.00;96352.88;5030515;28;20072;-53
2023/01/11 08:58:35;;;;;;;5.03;2.50;;;;;;;12.10;100.00;96346.13;5036024;28;20111;-52
2023/01/11 09:01:07;;;;;;;4.07;2.25;;;;;;;12.12;100.00;96351.25;5023127;28;20545;-54
2023/01/11 09:03:36;;;;;;;3.83;2.17;;;;;;;12.04;100.00;96352.03;5030432;28;20095;-55
2023/01/11 09:06:05;;;;;;;2.85;1.25;;;;;;;12.07;100.00;96357.00;5027304;28;20088;-53
2023/01/11 09:08:34;;;;;;;2.83;1.40;;;;;;;12.03;100.00;96358.28;5033972;28;20085;-52
2023/01/11 09:11:52;;;;;;;2.45;1.10;;;;;;;12.58;100.00;96357.09;5027143;28;20084;-56
2023/01/11 09:13:51;;;;;;;1.77;0.98;;;;;;;12.40;100.00;96359.81;5030477;28;20563;-52
2023/01/11 09:16:19;;;;;;;2.17;1.20;;;;;;;12.43;100.00;96351.56;5033767;28;20080;-51
2023/01/11 09:18:48;;;;;;;2.00;1.10;;;;;;;12.16;100.00;96371.09;5028793;28;20092;-52
2023/01/11 09:21:16;;;;;;;1.80;1.20;;;;;;;12.76;100.00;96364.91;5028544;28;20088;-53
2023/01/11 09:23:46;;;;;;;2.10;1.00;;;;;;;13.39;100.00;96364.44;5028775;28;20544;-52
2023/01/11 09:26:17;;;;;;;1.88;1.33;;;;;;;13.60;100.00;96361.28;5027703;28;20619;-56
2023/01/11 09:28:45;;;;;;;2.08;1.00;;;;;;;13.89;100.00;96368.72;5028214;28;20123;-52
2023/01/11 09:31:14;;;;;;;1.80;1.13;;;;;;;13.97;100.00;96368.72;5035214;28;20083;-56
2023/01/11 09:33:42;;;;;;;2.25;1.10;;;;;;;14.02;100.00;96366.38;5027309;28;20077;-54
2023/01/11 09:36:12;;;;;;;1.75;0.90;;;;;;;14.40;99.35;96353.34;5031508;28;20102;-51
2023/01/11 09:38:40;;;;;;;1.45;1.00;;;;;;;13.85;100.00;96356.78;5029497;28;20077;-54
2023/01/11 09:41:24;;;;;;;3.35;2.00;;;;;;;14.19;100.00;96347.78;5033727;28;20092;-55
2023/01/11 09:43:56;;;;;;;1.90;1.10;;;;;;;14.16;100.00;96359.56;5031086;28;20089;-55
2023/01/11 09:46:26;;;;;;;1.60;1.00;;;;;;;14.62;100.00;96351.81;5027553;28;20077;-54
2023/01/11 09:48:58;;;;;;;1.33;0.90;;;;;;;14.07;100.00;96349.13;5032080;28;20080;-53
2023/01/11 09:51:32;;;;;;;1.63;1.00;;;;;;;14.51;100.00;96346.06;5023953;28;20073;-49
2023/01/11 09:54:04;;;;;;;2.13;0.80;;;;;;;14.25;100.00;96347.13;5032124;28;20089;-47
2023/01/11 09:56:44;;;;;;;1.70;0.80;;;;;;;14.54;100.00;96345.72;5029908;28;20076;-53
2023/01/11 09:59:19;;;;;;;3.50;1.05;;;;;;;14.09;100.00;96342.66;5030885;28;20118;-49
2023/01/11 10:01:52;;;;;;;3.15;1.00;;;;;;;14.79;100.00;96335.81;5032039;28;20081;-52
2023/01/11 10:04:41;;;;;;;1.88;1.20;;;;;;;14.77;97.17;96333.34;5030777;28;20080;-49
2023/01/11 10:07:21;;;;;;;2.70;1.20;;;;;;;14.46;100.00;96335.94;5026376;28;20118;-51
2023/01/11 10:10:00;;;;;;;4.32;1.30;;;;;;;14.49;100.00;96330.28;5029419;28;20080;-48
2023/01/11 10:12:56;;;;;;;5.38;1.17;;;;;;;13.64;100.00;96340.59;5034116;28;20061;-52
2023/01/11 10:15:49;;;;;;;2.97;1.27;;;;;;;14.66;100.00;96331.09;5030104;28;20085;-53
2023/01/11 10:18:49;;;;;;;1.58;1.13;;;;;;;14.76;100.00;96323.69;5036954;28;20095;-54
2023/01/11 10:21:42;;;;;;;1.70;1.00;;;;;;;14.31;100.00;96324.38;5025866;28;21668;-50
2023/01/11 10:24:17;;;;;;;1.98;1.17;;;;;;;14.75;99.60;96311.44;5023979;28;20073;-51
2023/01/11 10:26:45;;;;;;;4.35;2.03;;;;;;;14.93;96.70;96313.81;5035580;28;20065;-47
2023/01/11 10:29:37;;;;;;;2.72;1.40;;;;;;;14.87;98.71;96310.06;5029986;28;20244;-52
2023/01/11 10:32:33;;;;;;;5.32;2.00;;;;;;;14.74;100.00;96309.78;5029552;28;20462;-47
2023/01/11 10:35:40;;;;;;;4.00;1.95;;;;;;;14.79;99.23;96307.44;5026376;28;20100;-48
2023/01/11 10:38:31;;;;;;;2.92;1.58;;;;;;;14.44;100.00;96316.69;5029735;28;20088;-48
2023/01/11 10:41:07;;;;;;;3.45;1.55;;;;;;;14.72;100.00;96311.78;5022262;28;20640;-50
2023/01/11 10:43:41;;;;;;;3.15;1.48;;;;;;;14.88;99.80;96308.22;5020194;28;20143;-50
2023/01/11 10:46:13;;;;;;;3.63;1.77;;;;;;;15.08;94.48;96300.63;5026029;28;20084;-54
2023/01/11 10:48:43;;;;;;;7.00;3.03;;;;;;;14.15;100.00;96307.53;5029329;28;20080;-51
2023/01/11 10:51:18;;;;;;;9.10;3.90;;;;;;;14.92;99.53;96291.75;5022978;28;20473;-53
2023/01/11 10:53:56;;;;;;;6.10;3.53;;;;;;;14.86;95.14;96292.44;5028132;28;20080;-52
2023/01/11 10:56:36;;;;;;;6.03;2.65;;;;;;;14.80;99.19;96301.13;5026375;28;20065;-49
2023/01/11 10:59:42;;;;;;;2.10;1.20;;;;;;;14.88;100.00;96285.16;5026860;28;20575;-54
2023/01/11 11:02:21;;;;;;;1.90;1.08;;;;;;;14.78;100.00;96289.03;5026181;28;20077;-54
2023/01/11 11:05:04;;;;;;;3.17;1.10;;;;;;;15.01;100.00;96278.44;5028274;28;20485;-55
2023/01/11 11:07:39;;;;;;;2.08;0.98;;;;;;;14.94;96.24;96273.84;5028146;28;20465;-55
2023/01/11 11:10:14;;;;;;;6.57;1.27;;;;;;;15.50;89.62;96268.25;5027320;28;20072;-53
2023/01/11 11:12:50;;;;;;;1.52;1.00;;;;;;;15.76;84.90;96267.03;5023777;28;20116;-51
2023/01/11 11:15:22;;;;;;;2.63;1.75;;;;;;;15.85;85.06;96253.47;5026648;28;20080;-52
2023/01/11 11:17:54;;;;;;;5.32;1.88;;;;;;;16.00;85.10;96253.50;5024245;28;20072;-55
2023/01/11 11:20:26;;;;;;;2.33;1.30;;;;;;;15.98;88.46;96250.19;5026614;28;20065;-54
2023/01/11 11:22:56;;;;;;;3.20;1.27;;;;;;;16.02;86.04;96258.63;5026323;28;20073;-53
2023/01/11 11:25:29;;;;;;;3.60;1.30;;;;;;;16.29;86.86;96249.16;5024423;28;20091;-56
2023/01/11 11:28:01;;;;;;;2.83;1.25;;;;;;;16.60;86.03;96246.25;5027406;28;20084;-57
2023/01/11 11:30:33;;;;;;;1.67;1.15;;;;;;;16.61;88.93;96246.06;5028098;28;20103;-55
2023/01/11 11:33:05;;;;;;;1.83;1.30;;;;;;;16.95;85.35;96244.59;5037058;28;20065;-51
2023/01/11 11:35:37;;;;;;;5.35;1.38;;;;;;;16.91;94.59;96230.03;5029946;28;20069;-50
2023/01/11 11:38:06;;;;;;;1.90;0.90;;;;;;;16.19;82.86;96235.31;5018624;28;20458;-53
2023/01/11 11:40:36;;;;;;;2.03;1.08;;;;;;;16.49;76.45;96225.44;5028070;28;20073;-51
2023/01/11 11:43:16;;;;;;;3.67;1.00;;;;;;;16.64;78.64;96233.38;5024531;28;20073;-52
2023/01/11 11:45:52;;;;;;;1.60;0.88;;;;;;;16.77;78.00;96229.06;5023820;28;20130;-53
2023/01/11 11:48:23;;;;;;;1.73;0.73;;;;;;;17.15;70.52;96220.81;5020668;28;20076;-54
2023/01/11 11:50:53;;;;;;;1.50;0.80;;;;;;;17.23;69.44;96212.69;5024768;28;20077;-52
2023/01/11 11:53:37;;;;;;;2.08;0.70;;;;;;;17.17;70.30;96208.16;5025771;28;20069;-54
2023/01/11 11:56:08;;;;;;;1.85;0.90;;;;;;;17.33;71.31;96207.03;5015799;28;20073;-55
2023/01/11 11:58:40;;;;;;;1.30;0.80;;;;;;;17.48;69.32;96196.25;5023671;28;20088;-51
2023/01/11 12:01:20;;;;;;;1.73;1.00;;;;;;;17.29;69.55;96189.78;5022863;28;20073;-55
2023/01/11 12:03:51;;;;;;;4.22;2.38;;;;;;;17.34;71.65;96190.00;5021034;28;20560;-55
2023/01/11 12:06:25;;;;;;;1.83;1.27;;;;;;;17.09;74.16;96192.28;5023952;28;20458;-54
2023/01/11 12:08:54;;;;;;;1.85;1.02;;;;;;;17.30;76.80;96192.25;5026328;28;20073;-56
2023/01/11 12:11:28;;;;;;;1.20;1.05;;;;;;;17.66;77.08;96191.28;5027995;28;20088;-52
2023/01/11 12:14:01;;;;;;;1.20;0.80;;;;;;;17.89;72.26;96192.88;5021917;28;20387;-55